Time;durP1;ratioP1;P1;durP2;ratioP2;P2;SDS_P1;SDS_P2;PMS_P1;PMS_P2;Temp;Humidity;BMP_temperature;BMP_pressure;BME280_temperature;BME280_humidity;BME280_pressure;Samples;Min_cycle;Max_cycle;Signal;HPM_P1;HPM_P2
2022/11/23 00:01:33;;;;;;;153.75;69.50;;;;;;;1.43;100.00;99368.03;5115090;28;20027;-76
2022/11/23 00:04:02;;;;;;;152.43;69.20;;;;;;;1.43;100.00;99367.25;5115113;28;20035;-76
2022/11/23 00:06:27;;;;;;;151.50;66.32;;;;;;;1.40;100.00;99371.00;5115157;28;20039;-76
2022/11/23 00:08:53;;;;;;;149.90;69.82;;;;;;;1.37;100.00;99364.22;5114680;28;20080;-76
2022/11/23 00:11:20;;;;;;;166.05;72.00;;;;;;;1.34;100.00;99376.41;5097457;28;20019;-76
2022/11/23 00:13:45;;;;;;;149.18;67.03;;;;;;;1.28;100.00;99368.97;5114187;28;20027;-76
2022/11/23 00:16:14;;;;;;;153.23;64.20;;;;;;;1.25;100.00;99367.88;5114563;28;20369;-76
2022/11/23 00:18:39;;;;;;;147.35;69.05;;;;;;;1.23;100.00;99366.72;5112686;28;20055;-75
2022/11/23 00:21:11;;;;;;;150.15;67.95;;;;;;;1.22;100.00;99382.03;5095863;28;20070;-76
2022/11/23 00:23:37;;;;;;;;;;;;;;;1.22;100.00;99377.19;5115622;28;20028;-76
2022/11/23 00:26:03;;;;;;;157.00;67.70;;;;;;;1.21;100.00;99384.06;5115179;28;20375;-76
2022/11/23 00:28:28;;;;;;;150.23;68.25;;;;;;;1.25;100.00;99386.78;5114873;28;20027;-76
2022/11/23 00:30:53;;;;;;;159.05;65.95;;;;;;;1.25;100.00;99386.78;5114482;28;20422;-76
2022/11/23 00:33:19;;;;;;;146.10;67.22;;;;;;;1.28;100.00;99377.41;5114555;28;20023;-76
2022/11/23 00:35:44;;;;;;;145.40;65.82;;;;;;;1.30;100.00;99383.38;5114662;28;20479;-76
2022/11/23 00:38:10;;;;;;;141.02;63.83;;;;;;;1.32;100.00;99387.31;5114713;28;20048;-76
2022/11/23 00:40:35;;;;;;;145.07;63.25;;;;;;;1.31;100.00;99391.34;5114138;28;20027;-76
2022/11/23 00:43:01;;;;;;;153.77;66.88;;;;;;;1.36;100.00;99399.22;5114381;28;20023;-76
2022/11/23 00:45:26;;;;;;;143.15;65.28;;;;;;;1.31;100.00;99405.44;5114292;28;20201;-76
2022/11/23 00:47:51;;;;;;;160.30;66.55;;;;;;;1.27;100.00;99396.31;5114135;28;20059;-76
2022/11/23 00:50:17;;;;;;;145.98;65.03;;;;;;;1.20;100.00;99390.94;5113969;28;20028;-76
2022/11/23 00:52:42;;;;;;;155.02;66.13;;;;;;;1.17;100.00;99383.38;5113897;28;20028;-76
2022/11/23 00:55:08;;;;;;;134.45;61.70;;;;;;;1.13;100.00;99381.94;5114066;28;20444;-76
2022/11/23 00:57:33;;;;;;;153.30;65.93;;;;;;;1.12;100.00;99381.13;5114269;28;20027;-77
2022/11/23 00:59:59;;;;;;;154.50;65.13;;;;;;;1.20;100.00;99384.53;5114120;28;20106;-76
2022/11/23 01:02:24;;;;;;;135.85;64.30;;;;;;;1.23;100.00;99381.59;5113831;28;20102;-76
2022/11/23 01:04:50;;;;;;;147.27;64.70;;;;;;;1.29;100.00;99382.59;5129094;27;20491;-76
2022/11/23 01:07:15;;;;;;;139.00;60.88;;;;;;;1.31;100.00;99384.94;5133967;27;20114;-77
2022/11/23 01:09:40;;;;;;;136.80;60.75;;;;;;;1.28;100.00;99389.47;5134381;27;20050;-76
2022/11/23 01:12:06;;;;;;;124.95;56.55;;;;;;;1.29;100.00;99395.88;5134132;28;20019;-76
2022/11/23 01:14:31;;;;;;;128.40;56.95;;;;;;;1.32;100.00;99392.16;5134235;28;20038;-76
2022/11/23 01:16:56;;;;;;;134.60;60.70;;;;;;;1.36;100.00;99384.38;5134445;28;20042;-75
2022/11/23 01:19:22;;;;;;;135.43;60.28;;;;;;;1.41;100.00;99401.47;5116658;28;20023;-76
2022/11/23 01:21:47;;;;;;;126.65;55.45;;;;;;;1.43;100.00;99392.59;5134284;28;20055;-76
2022/11/23 01:24:18;;;;;;;121.80;57.08;;;;;;;1.49;100.00;99396.41;5134443;28;20482;-76
2022/11/23 01:26:43;;;;;;;109.95;52.70;;;;;;;1.54;100.00;99390.22;5115855;28;20387;-76
2022/11/23 01:29:09;;;;;;;124.25;55.60;;;;;;;1.58;100.00;99399.31;5134392;28;20019;-77
2022/11/23 01:31:34;;;;;;;110.65;52.47;;;;;;;1.62;100.00;99402.00;5136922;27;20035;-76
2022/11/23 01:34:03;;;;;;;111.22;52.20;;;;;;;1.66;100.00;99397.81;5120038;27;20034;-76
2022/11/23 01:36:31;;;;;;;113.60;52.85;;;;;;;1.70;100.00;99400.53;5112008;27;20031;-77
2022/11/23 01:38:58;;;;;;;109.88;49.58;;;;;;;1.72;100.00;99403.66;5120402;27;20029;-76
2022/11/23 01:41:35;;;;;;;107.25;51.75;;;;;;;1.76;100.00;99404.31;5119660;27;20080;-76
2022/11/23 01:44:22;;;;;;;132.98;57.13;;;;;;;1.80;100.00;99404.97;5120049;27;20031;-75
2022/11/23 01:46:47;;;;;;;116.68;53.42;;;;;;;1.76;100.00;99399.47;5138233;27;20388;-77
2022/11/23 01:49:12;;;;;;;118.65;53.28;;;;;;;1.82;100.00;99406.13;5138273;27;20494;-76
2022/11/23 01:51:43;;;;;;;120.85;55.88;;;;;;;1.83;100.00;99407.69;5119887;27;20023;-77
2022/11/23 01:54:26;;;;;;;116.20;53.42;;;;;;;1.85;100.00;99410.03;5119735;27;20023;-76
2022/11/23 01:56:57;;;;;;;116.22;55.20;;;;;;;1.81;100.00;99398.91;5119708;27;20033;-77
2022/11/23 01:59:23;;;;;;;124.05;59.22;;;;;;;1.84;100.00;99406.47;5102507;27;20031;-76
2022/11/23 02:01:49;;;;;;;119.15;53.40;;;;;;;1.83;100.00;99406.91;5137797;27;20487;-76
2022/11/23 02:04:18;;;;;;;105.22;49.92;;;;;;;1.83;100.00;99406.91;5119473;27;20043;-76
2022/11/23 02:06:45;;;;;;;111.47;51.38;;;;;;;1.83;100.00;99407.69;5119591;27;20034;-76
2022/11/23 02:09:11;;;;;;;110.70;53.40;;;;;;;1.84;100.00;99409.28;5137808;27;20507;-76
2022/11/23 02:11:36;;;;;;;114.50;52.92;;;;;;;1.84;100.00;99409.28;5137474;27;20054;-77
2022/11/23 02:14:02;;;;;;;114.78;55.00;;;;;;;1.84;100.00;99409.28;5138071;27;20023;-76
2022/11/23 02:16:27;;;;;;;113.72;53.05;;;;;;;1.82;100.00;99400.47;5137916;27;20117;-76
2022/11/23 02:18:53;;;;;;;115.97;54.15;;;;;;;1.75;100.00;99386.63;5138120;27;20019;-76
2022/11/23 02:21:18;;;;;;;126.75;55.35;;;;;;;1.80;100.00;99405.78;5119028;27;20027;-76
2022/11/23 02:24:00;;;;;;;127.60;59.45;;;;;;;1.78;100.00;99408.28;5119485;27;20027;-76
2022/11/23 02:26:28;;;;;;;120.28;54.05;;;;;;;1.75;100.00;99402.78;5119129;27;20107;-76
2022/11/23 02:29:15;;;;;;;117.57;54.60;;;;;;;1.74;100.00;99406.81;5137656;27;20459;-76
2022/11/23 02:31:40;;;;;;;117.15;53.95;;;;;;;1.73;100.00;99405.25;5137248;27;20077;-76
2022/11/23 02:34:06;;;;;;;107.93;52.28;;;;;;;1.59;100.00;99383.22;5137379;27;20103;-76
2022/11/23 02:36:47;;;;;;;112.68;50.53;;;;;;;1.70;100.00;99409.75;5137384;27;20023;-76
2022/11/23 02:39:45;;;;;;;118.97;56.17;;;;;;;1.69;100.00;99399.75;5137542;27;20023;-76
2022/11/23 02:42:11;;;;;;;131.13;58.80;;;;;;;1.68;100.00;99408.63;5063140;27;20461;-76
2022/11/23 02:44:47;;;;;;;111.93;56.10;;;;;;;1.67;100.00;99404.25;5137220;27;20421;-76
2022/11/23 02:47:12;;;;;;;111.97;53.72;;;;;;;1.70;100.00;99406.16;5136870;27;20168;-76
2022/11/23 02:49:41;;;;;;;104.45;49.88;;;;;;;1.69;100.00;99405.38;5137207;27;20106;-77
2022/11/23 02:52:07;;;;;;;119.25;52.53;;;;;;;1.70;100.00;99409.75;5137205;27;20027;-76
2022/11/23 02:54:33;;;;;;;108.53;51.35;;;;;;;1.71;100.00;99410.53;5118603;27;20039;-77
2022/11/23 02:56:58;;;;;;;107.53;49.97;;;;;;;1.71;100.00;99405.69;5119109;27;20034;-77
2022/11/23 02:59:24;;;;;;;121.05;54.38;;;;;;;1.74;100.00;99409.63;5136888;27;20023;-76
2022/11/23 03:01:49;;;;;;;115.20;53.40;;;;;;;1.79;100.00;99406.25;5137144;27;20027;-76
2022/11/23 03:04:15;;;;;;;115.70;53.65;;;;;;;1.78;100.00;99411.09;5137152;27;20426;-77
2022/11/23 03:06:40;;;;;;;113.85;52.75;;;;;;;1.78;100.00;99404.66;5137265;27;20027;-77
2022/11/23 03:09:06;;;;;;;111.20;51.90;;;;;;;1.80;100.00;99399.34;5136706;27;20043;-77
2022/11/23 03:11:32;;;;;;;116.47;52.25;;;;;;;1.78;100.00;99408.28;5136807;27;20069;-76
2022/11/23 03:13:57;;;;;;;103.15;51.53;;;;;;;1.76;100.00;99399.47;5136480;27;20027;-76
2022/11/23 03:16:23;;;;;;;107.47;49.72;;;;;;;1.77;100.00;99405.91;5136331;27;20042;-77
2022/11/23 03:18:49;;;;;;;107.50;50.05;;;;;;;1.79;100.00;99404.22;5136784;27;20034;-78
2022/11/23 03:21:14;;;;;;;94.57;45.40;;;;;;;1.77;100.00;99400.28;5138247;27;20027;-75
2022/11/23 03:23:40;;;;;;;116.63;48.92;;;;;;;1.80;100.00;99408.59;5136963;27;20417;-76
2022/11/23 03:26:05;;;;;;;94.47;46.85;;;;;;;1.82;100.00;99408.94;5136217;27;20031;-76
2022/11/23 03:28:30;;;;;;;95.05;46.30;;;;;;;1.81;100.00;99406.56;5136306;27;20100;-76
2022/11/23 03:30:56;;;;;;;96.22;44.90;;;;;;;1.79;100.00;99403.44;5136187;27;20023;-77
2022/11/23 03:33:21;;;;;;;90.85;43.25;;;;;;;1.78;100.00;99401.84;5118119;27;20027;-76
2022/11/23 03:35:47;;;;;;;104.63;44.97;;;;;;;1.74;100.00;99396.34;5118095;27;20053;-76
2022/11/23 03:38:13;;;;;;;99.30;44.40;;;;;;;1.71;100.00;99402.88;5136245;27;20058;-76
2022/11/23 03:40:38;;;;;;;96.85;46.78;;;;;;;1.67;100.00;99404.25;5136286;27;20371;-76
2022/11/23 03:43:04;;;;;;;95.18;44.33;;;;;;;1.57;100.00;99394.13;5117902;27;20064;-76
2022/11/23 03:45:29;;;;;;;98.28;46.67;;;;;;;1.53;100.00;99407.53;5117449;27;20391;-76
2022/11/23 03:47:55;;;;;;;97.43;46.30;;;;;;;1.49;100.00;99410.47;5135741;27;20388;-76
2022/11/23 03:50:20;;;;;;;93.43;45.38;;;;;;;1.48;100.00;99403.28;5136007;27;20027;-76
2022/11/23 03:52:47;;;;;;;94.70;47.63;;;;;;;1.41;100.00;99387.41;5135807;27;20049;-76
2022/11/23 03:55:13;;;;;;;91.38;45.15;;;;;;;1.47;100.00;99396.84;5134959;27;20449;-76
2022/11/23 03:57:38;;;;;;;105.70;47.20;;;;;;;1.48;100.00;99397.66;5136005;27;20448;-77
2022/11/23 04:00:04;;;;;;;100.53;47.53;;;;;;;1.48;100.00;99395.63;5136177;27;20026;-76
2022/11/23 04:02:29;;;;;;;94.38;47.63;;;;;;;1.47;100.00;99401.69;5135649;27;20023;-76
2022/11/23 04:04:55;;;;;;;99.90;45.15;;;;;;;1.46;100.00;99405.75;5135941;27;20404;-76
2022/11/23 04:07:20;;;;;;;96.93;44.80;;;;;;;1.47;100.00;99398.88;5135954;27;20062;-76
2022/11/23 04:09:45;;;;;;;86.55;43.60;;;;;;;1.45;100.00;99396.50;5117427;27;20027;-76
2022/11/23 04:12:11;;;;;;;97.78;46.00;;;;;;;1.49;100.00;99393.59;5135851;27;20035;-76
2022/11/23 04:14:36;;;;;;;92.00;42.47;;;;;;;1.51;100.00;99399.53;5117159;27;20023;-79
2022/11/23 04:17:02;;;;;;;95.82;46.13;;;;;;;1.55;100.00;99399.44;5136042;27;20050;-77
2022/11/23 04:19:28;;;;;;;84.85;43.22;;;;;;;1.60;100.00;99396.81;5135583;27;20452;-77
2022/11/23 04:21:54;;;;;;;87.70;43.85;;;;;;;1.64;100.00;99397.50;5135694;27;20027;-77
2022/11/23 04:24:19;;;;;;;91.55;42.00;;;;;;;1.68;100.00;99403.00;5136230;27;20023;-78
2022/11/23 04:26:44;;;;;;;88.97;42.33;;;;;;;1.71;100.00;99402.09;5135900;27;20049;-77
2022/11/23 04:29:10;;;;;;;85.05;42.72;;;;;;;1.71;100.00;99393.63;5135218;27;20481;-77
2022/11/23 04:31:35;;;;;;;85.50;41.85;;;;;;;1.74;100.00;99389.94;5135103;27;20061;-77
2022/11/23 04:34:01;;;;;;;91.65;41.33;;;;;;;1.76;100.00;99393.84;5135603;27;20062;-78
2022/11/23 04:36:27;;;;;;;102.35;42.30;;;;;;;1.80;100.00;99385.28;5137081;27;20019;-77
2022/11/23 04:38:52;;;;;;;89.15;42.03;;;;;;;1.83;100.00;99393.63;5136908;27;20023;-77
2022/11/23 04:41:18;;;;;;;88.38;45.03;;;;;;;1.86;100.00;99387.06;5136148;27;20027;-77
2022/11/23 04:43:43;;;;;;;95.43;47.17;;;;;;;1.89;100.00;99388.19;5135532;27;20038;-76
2022/11/23 04:46:10;;;;;;;85.07;41.05;;;;;;;1.91;100.00;99388.50;5117864;27;20023;-76
2022/11/23 04:48:36;;;;;;;87.75;43.03;;;;;;;1.98;100.00;99391.09;5136309;27;20025;-75
2022/11/23 04:51:01;;;;;;;91.60;44.35;;;;;;;2.02;100.00;99379.69;5135785;27;20110;-76
2022/11/23 04:53:26;;;;;;;88.88;43.42;;;;;;;2.05;100.00;99384.38;5135545;27;20019;-77
2022/11/23 04:55:53;;;;;;;87.82;41.78;;;;;;;2.08;100.00;99387.09;5135092;27;20523;-76
2022/11/23 04:58:35;;;;;;;89.63;42.55;;;;;;;2.12;100.00;99386.97;5134955;27;20111;-77
2022/11/23 05:01:15;;;;;;;86.10;41.92;;;;;;;2.15;100.00;99386.03;5117241;28;20034;-76
2022/11/23 05:03:41;;;;;;;94.28;43.22;;;;;;;2.16;100.00;99381.97;5111252;28;20039;-77
2022/11/23 05:06:09;;;;;;;96.47;45.30;;;;;;;2.19;100.00;99384.66;5114403;28;20027;-77
2022/11/23 05:08:36;;;;;;;83.05;42.25;;;;;;;2.17;100.00;99384.34;5095644;28;20027;-76
2022/11/23 05:11:03;;;;;;;86.53;42.67;;;;;;;2.18;100.00;99391.56;5095872;28;20028;-76
2022/11/23 05:13:28;;;;;;;87.80;41.15;;;;;;;2.17;100.00;99389.97;5114331;28;20475;-77
2022/11/23 05:15:54;;;;;;;85.82;42.67;;;;;;;2.17;100.00;99394.81;5107786;28;20042;-77
2022/11/23 05:18:21;;;;;;;82.40;42.28;;;;;;;2.16;100.00;99388.41;5074814;28;20384;-77
2022/11/23 05:20:46;;;;;;;91.65;43.97;;;;;;;2.19;100.00;99389.53;5093731;28;20024;-76
2022/11/23 05:23:16;;;;;;;81.72;40.83;;;;;;;2.18;100.00;99385.13;5093731;28;20115;-75
2022/11/23 05:25:42;;;;;;;90.60;41.47;;;;;;;2.19;100.00;99401.56;5093670;28;20059;-77
2022/11/23 05:28:14;;;;;;;87.75;44.92;;;;;;;2.21;100.00;99387.03;5090249;28;20036;-78
2022/11/23 05:30:41;;;;;;;88.10;43.15;;;;;;;2.22;100.00;99391.41;5075462;28;20081;-75
2022/11/23 05:33:07;;;;;;;81.55;40.97;;;;;;;2.21;100.00;99392.66;5093273;28;20027;-78
2022/11/23 05:35:34;;;;;;;86.55;44.08;;;;;;;2.22;100.00;99388.59;5074976;28;20415;-76
2022/11/23 05:38:01;;;;;;;91.80;42.75;;;;;;;2.22;100.00;99397.84;5092978;28;20012;-77
2022/11/23 05:40:26;;;;;;;93.57;45.08;;;;;;;2.23;100.00;99402.25;5075163;28;20032;-76
2022/11/23 05:42:57;;;;;;;95.88;44.97;;;;;;;2.25;100.00;99402.56;5058347;28;20032;-77
2022/11/23 05:45:23;;;;;;;85.45;43.25;;;;;;;2.25;100.00;99402.56;5075141;28;20024;-76
2022/11/23 05:47:56;;;;;;;89.70;42.05;;;;;;;2.25;100.00;99391.28;5093709;28;20515;-77
2022/11/23 05:50:38;;;;;;;86.90;44.33;;;;;;;2.22;100.00;99394.25;5058243;28;20036;-74
2022/11/23 05:53:04;;;;;;;82.38;41.85;;;;;;;2.23;100.00;99393.00;5092395;28;20032;-76
2022/11/23 05:55:30;;;;;;;84.80;42.90;;;;;;;2.24;100.00;99391.75;5092646;28;20073;-75
2022/11/23 05:57:56;;;;;;;84.80;44.55;;;;;;;2.22;100.00;99391.41;5072808;28;20028;-73
2022/11/23 06:00:22;;;;;;;87.03;40.92;;;;;;;2.20;100.00;99394.69;5090798;28;20040;-74
2022/11/23 06:02:48;;;;;;;86.32;43.00;;;;;;;2.22;100.00;99411.94;5074964;28;20499;-73
2022/11/23 06:05:15;;;;;;;83.35;42.03;;;;;;;2.22;100.00;99411.94;5107998;28;20111;-73
2022/11/23 06:07:40;;;;;;;79.40;39.38;;;;;;;2.22;100.00;99411.16;5113262;28;20567;-73
2022/11/23 06:10:06;;;;;;;77.32;39.00;;;;;;;2.23;100.00;99407.88;5061862;28;20034;-74
2022/11/23 06:12:32;;;;;;;84.32;40.85;;;;;;;2.21;100.00;99406.75;5095222;28;20039;-75
2022/11/23 06:14:58;;;;;;;80.95;40.90;;;;;;;2.17;100.00;99409.72;5113564;28;20020;-73
2022/11/23 06:17:24;;;;;;;76.03;39.20;;;;;;;2.19;100.00;99420.53;5113173;28;20114;-75
2022/11/23 06:19:51;;;;;;;89.63;42.35;;;;;;;2.18;100.00;99431.00;5076257;28;20365;-76
2022/11/23 06:22:18;;;;;;;81.45;39.08;;;;;;;2.15;100.00;99437.53;5061725;28;20026;-76
2022/11/23 06:24:43;;;;;;;87.32;41.72;;;;;;;2.17;100.00;99434.28;5095866;28;20100;-75
2022/11/23 06:27:09;;;;;;;86.35;41.28;;;;;;;2.18;100.00;99442.28;5094563;28;20111;-75
2022/11/23 06:29:34;;;;;;;82.20;42.70;;;;;;;2.18;100.00;99444.31;5094024;28;20078;-74
2022/11/23 06:31:59;;;;;;;81.05;41.33;;;;;;;2.15;100.00;99448.03;5094022;28;20031;-74
2022/11/23 06:34:25;;;;;;;86.00;42.25;;;;;;;2.15;100.00;99450.84;5093998;28;20032;-74
2022/11/23 06:36:50;;;;;;;84.20;42.58;;;;;;;2.11;100.00;99453.78;5094323;28;20475;-73
2022/11/23 06:39:16;;;;;;;87.18;41.83;;;;;;;2.10;100.00;99448.59;5093782;28;20090;-73
2022/11/23 06:41:41;;;;;;;94.53;41.58;;;;;;;2.10;100.00;99454.25;5096160;28;20039;-74
2022/11/23 06:44:07;;;;;;;90.07;41.10;;;;;;;2.11;100.00;99453.00;5094457;28;20406;-74
2022/11/23 06:46:32;;;;;;;79.15;38.00;;;;;;;2.10;100.00;99452.22;5094006;28;20397;-75
2022/11/23 06:48:58;;;;;;;90.25;42.53;;;;;;;2.09;100.00;99461.94;5093785;28;20501;-74
2022/11/23 06:51:23;;;;;;;89.05;42.58;;;;;;;2.08;100.00;99463.16;5093456;28;20028;-75
2022/11/23 06:53:48;;;;;;;85.93;42.65;;;;;;;2.05;100.00;99466.88;5093629;28;20104;-73
2022/11/23 06:56:14;;;;;;;81.20;40.00;;;;;;;2.09;100.00;99461.16;5093311;28;20095;-74
2022/11/23 06:58:39;;;;;;;88.32;41.33;;;;;;;2.11;100.00;99469.91;5093239;28;20453;-74
2022/11/23 07:01:06;;;;;;;88.13;43.33;;;;;;;2.14;100.00;99467.00;5093165;28;20040;-74
2022/11/23 07:03:31;;;;;;;89.82;44.20;;;;;;;2.11;100.00;99464.28;5096894;28;20051;-74
2022/11/23 07:05:57;;;;;;;83.63;40.03;;;;;;;2.14;100.00;99469.03;5114181;28;20015;-73
2022/11/23 07:08:23;;;;;;;89.75;41.47;;;;;;;2.14;100.00;99475.44;5097753;28;20031;-74
2022/11/23 07:10:48;;;;;;;95.15;43.40;;;;;;;2.18;100.00;99475.31;5097949;28;20349;-74
2022/11/23 07:13:14;;;;;;;89.38;41.08;;;;;;;2.23;100.00;99471.91;5115805;28;20369;-73
2022/11/23 07:15:40;;;;;;;87.15;42.88;;;;;;;2.21;100.00;99478.00;5115950;28;20023;-74
2022/11/23 07:18:06;;;;;;;82.30;39.45;;;;;;;2.23;100.00;99471.91;5115365;28;20102;-74
2022/11/23 07:20:32;;;;;;;91.28;40.40;;;;;;;2.25;100.00;99469.41;5097528;28;20055;-74
2022/11/23 07:23:08;;;;;;;87.10;42.97;;;;;;;2.27;100.00;99470.53;5115283;28;20201;-74
2022/11/23 07:25:35;;;;;;;80.43;36.72;;;;;;;2.29;100.00;99482.13;5097230;28;20024;-73
2022/11/23 07:28:01;;;;;;;73.18;38.10;;;;;;;2.30;100.00;99478.06;5097075;28;20077;-73
2022/11/23 07:30:28;;;;;;;72.55;38.40;;;;;;;2.29;100.00;99475.72;5107013;28;20035;-74
2022/11/23 07:32:58;;;;;;;76.60;39.15;;;;;;;2.28;100.00;99471.34;5096931;28;20019;-74
2022/11/23 07:35:23;;;;;;;84.90;39.55;;;;;;;2.34;100.00;99477.97;5115168;28;20107;-75
2022/11/23 07:37:49;;;;;;;71.97;36.75;;;;;;;2.38;100.00;99477.84;5097259;28;20137;-74
2022/11/23 07:40:14;;;;;;;81.45;37.58;;;;;;;2.44;100.00;99485.22;5115532;28;20035;-74
2022/11/23 07:42:39;;;;;;;78.00;37.28;;;;;;;2.43;100.00;99494.94;5115178;28;20020;-74
2022/11/23 07:45:06;;;;;;;68.70;35.35;;;;;;;2.48;100.00;99496.41;5114923;28;20069;-74
2022/11/23 07:47:31;;;;;;;79.88;38.70;;;;;;;2.55;100.00;99498.94;5115236;28;20020;-74
2022/11/23 07:49:57;;;;;;;75.35;37.13;;;;;;;2.59;100.00;99502.41;5115182;28;20114;-75
2022/11/23 07:52:22;;;;;;;72.38;37.70;;;;;;;2.57;100.00;99502.91;5115295;28;20461;-74
2022/11/23 07:54:48;;;;;;;72.65;37.05;;;;;;;2.55;100.00;99493.31;5114898;28;20023;-73
2022/11/23 07:57:14;;;;;;;76.20;37.38;;;;;;;2.53;100.00;99513.53;5096186;28;20028;-75
2022/11/23 07:59:39;;;;;;;76.32;38.00;;;;;;;2.58;100.00;99512.94;5114674;28;20088;-75
2022/11/23 08:02:09;;;;;;;74.25;38.15;;;;;;;2.63;100.00;99511.56;5113730;28;20063;-77
2022/11/23 08:04:35;;;;;;;76.40;35.33;;;;;;;2.71;100.00;99516.47;5079479;28;20047;-76
2022/11/23 08:07:02;;;;;;;76.97;36.85;;;;;;;2.76;100.00;99510.25;5096455;28;20053;-75
2022/11/23 08:09:29;;;;;;;70.10;35.30;;;;;;;2.84;100.00;99518.44;5113364;28;20035;-74
2022/11/23 08:12:09;;;;;;;67.70;35.03;;;;;;;2.86;100.00;99511.09;5114486;28;20034;-73
2022/11/23 08:14:35;;;;;;;85.70;39.38;;;;;;;2.90;100.00;99514.56;5107457;28;20115;-73
2022/11/23 08:17:03;;;;;;;70.20;35.20;;;;;;;2.94;100.00;99515.22;5114641;28;20051;-73
2022/11/23 08:19:30;;;;;;;76.32;36.75;;;;;;;3.00;100.00;99529.53;5095369;28;20030;-74
2022/11/23 08:21:57;;;;;;;76.57;38.22;;;;;;;3.07;100.00;99524.41;5114177;28;20047;-72
2022/11/23 08:24:22;;;;;;;68.05;35.10;;;;;;;3.14;100.00;99514.88;5114822;28;20035;-75
2022/11/23 08:26:48;;;;;;;71.40;36.75;;;;;;;3.22;100.00;99516.97;5111465;28;20396;-75
2022/11/23 08:29:14;;;;;;;72.80;34.35;;;;;;;3.33;100.00;99522.19;5122481;27;20425;-77
2022/11/23 08:31:39;;;;;;;67.43;34.17;;;;;;;3.34;100.00;99500.38;5114474;28;20036;-77
2022/11/23 08:34:05;;;;;;;73.32;35.25;;;;;;;3.44;100.00;99504.84;5116305;27;20027;-76
2022/11/23 08:36:32;;;;;;;63.80;33.58;;;;;;;3.52;100.00;99506.13;5135157;27;20482;-72
2022/11/23 08:38:58;;;;;;;66.25;35.40;;;;;;;3.63;100.00;99500.81;5135300;27;20015;-75
2022/11/23 08:41:26;;;;;;;72.07;35.40;;;;;;;3.67;100.00;99501.50;5133260;27;20039;-74
2022/11/23 08:43:52;;;;;;;77.72;40.53;;;;;;;3.74;100.00;99501.19;5134581;27;20039;-75
2022/11/23 08:46:18;;;;;;;75.28;36.63;;;;;;;3.80;100.00;99507.00;5133212;27;20139;-74
2022/11/23 08:48:44;;;;;;;72.25;36.15;;;;;;;3.83;100.00;99500.41;5134185;27;20131;-75
2022/11/23 08:51:10;;;;;;;66.60;32.88;;;;;;;3.90;100.00;99500.97;5134430;27;20463;-75
2022/11/23 08:53:56;;;;;;;71.25;35.20;;;;;;;3.94;100.00;99495.16;5134672;27;20357;-75
2022/11/23 08:56:21;;;;;;;65.47;33.75;;;;;;;3.95;100.00;99491.88;5116034;27;20046;-71
2022/11/23 08:58:48;;;;;;;68.88;33.33;;;;;;;3.99;100.00;99488.88;5135188;27;20050;-75
2022/11/23 09:01:29;;;;;;;64.88;32.80;;;;;;;4.06;100.00;99485.78;5099513;27;20042;-74
2022/11/23 09:03:56;;;;;;;67.28;35.63;;;;;;;4.14;100.00;99481.38;5135059;27;20043;-76
2022/11/23 09:06:27;;;;;;;72.20;36.88;;;;;;;4.18;100.00;99470.69;5116094;28;20039;-74
2022/11/23 09:08:54;;;;;;;;;;;;;;;4.16;100.00;99464.75;5117848;27;20034;-75
2022/11/23 09:11:22;;;;;;;68.03;33.95;;;;;;;4.16;100.00;99473.22;5131448;27;20324;-74
2022/11/23 09:13:50;;;;;;;74.28;36.05;;;;;;;4.16;100.00;99478.09;5134736;28;20023;-73
2022/11/23 09:16:17;;;;;;;75.40;38.20;;;;;;;4.15;100.00;99471.66;5134388;28;20026;-73
2022/11/23 09:18:45;;;;;;;76.68;37.00;;;;;;;4.21;100.00;99471.81;5133776;28;20062;-75
2022/11/23 09:21:11;;;;;;;72.70;36.15;;;;;;;4.22;100.00;99476.97;5119929;28;20023;-74
2022/11/23 09:23:36;;;;;;;63.55;34.30;;;;;;;4.27;100.00;99475.56;5079072;28;20039;-75
2022/11/23 09:26:11;;;;;;;74.78;35.78;;;;;;;4.24;100.00;99474.47;5114214;28;20461;-74
2022/11/23 09:28:37;;;;;;;63.15;34.72;;;;;;;4.25;100.00;99470.41;5113509;28;20440;-74
2022/11/23 09:31:11;;;;;;;72.03;35.28;;;;;;;4.23;100.00;99467.25;5113824;28;20043;-76
2022/11/23 09:33:36;;;;;;;65.80;33.47;;;;;;;4.21;100.00;99471.81;5113889;28;20110;-74
2022/11/23 09:36:03;;;;;;;71.40;37.55;;;;;;;4.23;100.00;99461.59;5114037;28;20055;-72
2022/11/23 09:38:29;;;;;;;91.35;46.67;;;;;;;4.28;100.00;99460.19;5113869;28;20027;-74
2022/11/23 09:41:18;;;;;;;84.47;41.40;;;;;;;4.32;100.00;99450.28;5113752;28;20381;-74
2022/11/23 09:44:23;;;;;;;85.75;42.78;;;;;;;4.34;100.00;99449.81;5096375;28;20055;-73
2022/11/23 09:47:26;;;;;;;82.53;39.22;;;;;;;4.36;100.00;99450.16;5075145;28;20085;-73
2022/11/23 09:50:11;;;;;;;77.05;41.40;;;;;;;4.43;100.00;99446.97;5113829;28;20061;-74
2022/11/23 09:52:41;;;;;;;87.40;40.65;;;;;;;4.45;100.00;99438.81;5114939;28;20053;-73
2022/11/23 09:55:33;;;;;;;76.57;38.35;;;;;;;4.44;100.00;99434.41;5096288;28;20034;-74
2022/11/23 09:58:03;;;;;;;76.55;35.55;;;;;;;4.44;100.00;99431.59;5117762;28;20022;-73
2022/11/23 10:00:47;;;;;;;65.57;34.95;;;;;;;4.42;100.00;99425.59;5117258;28;20016;-72
2022/11/23 10:03:14;;;;;;;72.63;34.45;;;;;;;4.40;100.00;99430.97;5116360;28;20379;-74
2022/11/23 10:06:05;;;;;;;72.82;35.80;;;;;;;4.37;100.00;99429.84;5116213;28;20505;-73
2022/11/23 10:08:50;;;;;;;72.38;37.55;;;;;;;4.40;100.00;99428.94;5102317;28;20425;-74
2022/11/23 10:11:27;;;;;;;72.80;34.70;;;;;;;4.47;100.00;99436.28;5117124;28;20477;-74
2022/11/23 10:14:00;;;;;;;72.57;35.70;;;;;;;4.50;100.00;99436.16;5099162;28;20035;-74
2022/11/23 10:16:25;;;;;;;68.03;35.42;;;;;;;4.58;100.00;99432.97;5117289;28;20037;-74
2022/11/23 10:19:03;;;;;;;67.35;35.60;;;;;;;4.66;100.00;99426.53;5117139;28;20090;-72
2022/11/23 10:22:10;;;;;;;73.18;37.00;;;;;;;4.75;100.00;99431.41;5117207;28;20047;-74
2022/11/23 10:24:59;;;;;;;64.88;33.45;;;;;;;4.82;100.00;99423.34;5084467;28;20032;-73
2022/11/23 10:27:24;;;;;;;68.53;32.25;;;;;;;4.91;100.00;99434.66;5114929;28;20058;-74
2022/11/23 10:29:55;;;;;;;64.45;32.95;;;;;;;4.97;100.00;99434.00;5113493;28;20451;-73
2022/11/23 10:32:30;;;;;;;66.03;33.10;;;;;;;5.03;100.00;99435.72;5099483;28;20544;-74
2022/11/23 10:35:16;;;;;;;61.67;31.10;;;;;;;5.14;100.00;99432.41;5098829;28;20106;-73
2022/11/23 10:37:41;;;;;;;67.00;34.08;;;;;;;5.23;100.00;99423.84;5116635;28;20456;-75
2022/11/23 10:40:25;;;;;;;63.05;33.08;;;;;;;5.34;100.00;99424.13;5098522;28;20172;-74
2022/11/23 10:43:07;;;;;;;65.03;31.15;;;;;;;5.47;100.00;99418.25;5098755;28;20029;-73
2022/11/23 10:45:33;;;;;;;;;;;;;;;5.51;100.00;99422.47;5098886;28;20030;-75
2022/11/23 10:47:59;;;;;;;59.13;29.70;;;;;;;5.48;100.00;99409.28;5116685;28;19911;-75
2022/11/23 10:50:36;;;;;;;69.63;31.60;;;;;;;5.58;100.00;99410.00;5081410;28;20055;-75
2022/11/23 10:53:19;;;;;;;66.15;30.55;;;;;;;5.74;100.00;99420.94;5082332;28;20028;-75
2022/11/23 10:55:56;;;;;;;59.70;30.38;;;;;;;5.98;100.00;99418.09;5098138;28;20030;-74
2022/11/23 10:58:51;;;;;;;74.22;30.75;;;;;;;6.17;100.00;99419.53;5098050;28;20495;-75
2022/11/23 11:01:23;;;;;;;61.10;30.05;;;;;;;6.35;100.00;99410.13;5094229;28;20132;-75
2022/11/23 11:03:51;;;;;;;;;;;;;;;6.55;100.00;99422.38;5112813;28;20197;-75
2022/11/23 11:06:28;;;;;;;62.90;29.92;;;;;;;6.66;100.00;99411.25;5116386;28;20267;-75
2022/11/23 11:09:00;;;;;;;61.15;30.13;;;;;;;6.82;100.00;99412.03;5116053;28;20019;-75
2022/11/23 11:11:34;;;;;;;65.82;31.83;;;;;;;6.89;100.00;99415.28;5097420;28;20024;-73
2022/11/23 11:14:23;;;;;;;65.30;32.25;;;;;;;7.04;100.00;99409.59;5097966;28;20039;-73
2022/11/23 11:16:54;;;;;;;63.10;31.38;;;;;;;7.20;100.00;99411.13;5098365;28;20027;-73
2022/11/23 11:19:34;;;;;;;58.30;29.77;;;;;;;7.30;100.00;99415.44;5080702;28;20489;-73
2022/11/23 11:22:10;;;;;;;60.03;30.00;;;;;;;7.27;100.00;99410.75;5097987;28;20035;-73
2022/11/23 11:24:44;;;;;;;59.60;29.98;;;;;;;7.32;100.00;99401.53;5081906;28;20058;-73